Irma, Wisconsin
Current Conditions -  °F | °C
As of 9:35 PM on Saturday 24 Jan 2015 (Local Time) from KTKV Reporting Station
Overcast Overcast  
Wind Chill: 19°   Ceiling: 1300
Heat Index: 26°   Visibility: 10mi
Dew Point: 21°   Wind: 7mph
Humidity: 81%   Direction: 60°ENE
Pressure: 29.69"   Gusts: 17mph
Location:  45.35°N, 89.67°W
Report Text: KTKV 250335Z AUTO 06006G15KT 10SM OVC013 M03/M06 A2969 RMK AO2 T10311060
Loading
Personal Weather Stations






























Interactive Weather Map New forecast layout! Learn more

10-Day Weather Forecast

Advertisements
Track Severe Weather on mobile